createdAt,value
2019-02-09T00:00:29.340Z,79.60
2019-02-09T00:03:00.532Z,80.17
2019-02-09T00:05:31.170Z,77.90
2019-02-09T00:08:01.946Z,84.00
2019-02-09T00:10:32.531Z,82.00
2019-02-09T00:13:03.158Z,89.97
2019-02-09T00:15:34.040Z,84.27
2019-02-09T00:18:05.230Z,83.73
2019-02-09T00:20:35.754Z,85.60
2019-02-09T00:23:07.835Z,84.13
2019-02-09T00:25:38.392Z,84.40
2019-02-09T00:28:09.115Z,82.70
2019-02-09T00:30:39.700Z,85.33
2019-02-09T00:33:10.334Z,86.43
2019-02-09T00:35:40.902Z,87.87
2019-02-09T00:38:11.913Z,86.83
2019-02-09T00:40:42.583Z,87.23
2019-02-09T00:43:13.233Z,86.87
2019-02-09T00:45:43.863Z,88.33
2019-02-09T00:48:14.439Z,86.13
2019-02-09T00:50:45.152Z,85.50
2019-02-09T00:53:15.806Z,90.27
2019-02-09T00:55:46.325Z,90.33
2019-02-09T00:58:17.073Z,88.33
2019-02-09T01:00:47.803Z,90.30
2019-02-09T01:03:19.529Z,89.60
2019-02-09T01:05:50.133Z,88.37
2019-02-09T01:08:20.849Z,88.30
2019-02-09T01:10:51.425Z,96.53
2019-02-09T01:13:21.823Z,95.87
2019-02-09T01:15:52.301Z,87.93
2019-02-09T01:18:22.905Z,94.73
2019-02-09T01:20:53.414Z,89.03
2019-02-09T01:23:24.487Z,92.47
2019-02-09T01:25:54.954Z,91.77
2019-02-09T01:28:26.088Z,83.60
2019-02-09T01:30:56.582Z,95.57
2019-02-09T01:33:27.467Z,96.93
2019-02-09T01:35:58.114Z,92.00
2019-02-09T01:38:28.653Z,94.33
2019-02-09T01:40:59.536Z,92.07
2019-02-09T01:43:30.248Z,92.33
2019-02-09T01:46:00.963Z,94.07
2019-02-09T01:48:31.744Z,92.97
2019-02-09T01:51:02.372Z,90.07
2019-02-09T01:53:56.248Z,87.53
2019-02-09T01:56:26.801Z,86.80
2019-02-09T01:58:57.449Z,90.23
2019-02-09T02:01:28.250Z,95.30
2019-02-09T02:03:58.817Z,90.10
2019-02-09T02:06:29.303Z,88.80
2019-02-09T02:08:59.929Z,87.80
2019-02-09T02:11:30.503Z,89.77
2019-02-09T02:14:03.239Z,87.23
2019-02-09T02:16:33.711Z,94.90
2019-02-09T02:19:04.625Z,88.97
2019-02-09T02:21:35.447Z,88.77
2019-02-09T02:24:06.219Z,90.03
2019-02-09T02:26:38.285Z,94.10
2019-02-09T02:29:09.948Z,86.03
2019-02-09T02:31:40.639Z,95.27
2019-02-09T02:34:11.280Z,100.03
2019-02-09T02:36:41.861Z,89.13
2019-02-09T02:39:12.536Z,93.60
2019-02-09T02:41:43.259Z,99.80
2019-02-09T02:44:13.862Z,100.03
2019-02-09T02:46:44.648Z,95.47
2019-02-09T02:49:15.231Z,94.93
2019-02-09T02:51:45.932Z,97.07
2019-02-09T02:54:16.524Z,95.50
2019-02-09T02:56:47.411Z,101.37
2019-02-09T02:59:17.994Z,99.17
2019-02-09T03:01:49.003Z,96.03
2019-02-09T03:04:19.702Z,87.57
2019-02-09T03:06:51.568Z,89.27
2019-02-09T03:09:22.294Z,88.03
2019-02-09T03:11:52.987Z,91.30
2019-02-09T03:14:24.710Z,86.83
2019-02-09T03:16:55.426Z,98.60
2019-02-09T03:19:26.000Z,90.17
2019-02-09T03:21:56.674Z,96.37
2019-02-09T03:24:27.371Z,95.77
2019-02-09T03:26:57.887Z,97.57
2019-02-09T03:29:28.424Z,87.67
2019-02-09T03:31:58.973Z,89.30
2019-02-09T03:34:29.647Z,88.37
2019-02-09T03:37:00.326Z,89.00
2019-02-09T03:39:30.886Z,95.40
2019-02-09T03:42:01.723Z,96.27
2019-02-09T03:44:32.157Z,92.37
2019-02-09T03:47:02.902Z,88.77
2019-02-09T03:49:33.435Z,87.90
2019-02-09T03:52:04.037Z,97.97
2019-02-09T03:54:34.567Z,94.37
2019-02-09T03:57:05.113Z,92.87
2019-02-09T03:59:35.823Z,82.90
2019-02-09T04:02:06.521Z,84.03
2019-02-09T04:04:37.317Z,90.27
2019-02-09T04:07:07.894Z,94.00
2019-02-09T04:09:38.873Z,90.27
2019-02-09T04:12:09.709Z,83.77
2019-02-09T04:14:40.209Z,90.10
2019-02-09T04:17:10.694Z,89.23
2019-02-09T04:19:41.607Z,88.40
2019-02-09T04:22:12.266Z,90.73
2019-02-09T04:24:42.804Z,85.93
2019-02-09T04:27:13.912Z,86.83
2019-02-09T04:29:44.481Z,88.93
2019-02-09T04:32:15.150Z,90.33
2019-02-09T04:34:45.702Z,87.00
2019-02-09T04:37:16.162Z,79.73
2019-02-09T04:39:47.082Z,85.30
2019-02-09T04:42:17.638Z,81.93
2019-02-09T04:44:48.271Z,86.27
2019-02-09T04:47:18.764Z,87.37
2019-02-09T04:49:49.390Z,87.70
2019-02-09T04:52:19.889Z,83.60
2019-02-09T04:54:50.414Z,86.03
2019-02-09T04:57:21.019Z,84.30
2019-02-09T04:59:51.611Z,83.10
2019-02-09T05:02:23.067Z,83.67
2019-02-09T05:04:53.734Z,83.80
2019-02-09T05:07:24.297Z,84.07
2019-02-09T05:09:55.022Z,84.83
2019-02-09T05:12:25.480Z,80.37
2019-02-09T05:14:56.038Z,74.67
2019-02-09T05:17:26.709Z,72.17
2019-02-09T05:19:57.269Z,63.33
2019-02-09T05:22:28.191Z,74.07
2019-02-09T05:24:58.797Z,73.37
2019-02-09T05:27:30.362Z,72.23
2019-02-09T05:30:01.019Z,71.53
2019-02-09T05:32:31.654Z,74.77
2019-02-09T05:35:02.222Z,75.10
2019-02-09T05:37:32.644Z,74.40
2019-02-09T05:40:03.309Z,69.70
2019-02-09T05:42:33.716Z,67.27
2019-02-09T05:45:06.453Z,68.53
2019-02-09T05:47:37.032Z,72.03
2019-02-09T05:50:10.331Z,72.97
2019-02-09T05:52:40.983Z,70.83
2019-02-09T05:55:12.862Z,68.30
2019-02-09T05:57:43.443Z,72.90
2019-02-09T06:00:22.526Z,71.03
2019-02-09T06:02:53.201Z,68.20
2019-02-09T06:05:23.879Z,71.93
2019-02-09T06:07:54.787Z,72.03
2019-02-09T06:10:25.314Z,73.00
2019-02-09T06:12:56.906Z,70.30
2019-02-09T06:15:27.745Z,69.77
2019-02-09T06:17:58.439Z,73.13
2019-02-09T06:20:29.221Z,69.93
2019-02-09T06:22:59.990Z,75.53
2019-02-09T06:25:37.107Z,75.67
2019-02-09T06:28:08.035Z,71.00
2019-02-09T06:30:38.558Z,69.50
2019-02-09T06:33:09.081Z,72.90
2019-02-09T06:35:39.830Z,68.20
2019-02-09T06:38:17.320Z,73.87
2019-02-09T06:40:47.988Z,65.90
2019-02-09T06:43:18.566Z,68.03
2019-02-09T06:45:49.419Z,63.33
2019-02-09T06:48:25.824Z,62.23
2019-02-09T06:50:57.951Z,64.23
2019-02-09T06:53:29.689Z,59.67
2019-02-09T06:56:01.041Z,61.43
2019-02-09T06:58:32.965Z,63.67
2019-02-09T07:01:03.697Z,59.97
2019-02-09T07:03:34.385Z,65.40
2019-02-09T07:06:05.539Z,63.83
2019-02-09T07:08:36.067Z,57.67
2019-02-09T07:11:07.976Z,60.50
2019-02-09T07:13:38.867Z,61.43
2019-02-09T07:16:09.393Z,59.67
2019-02-09T07:18:39.983Z,61.50
2019-02-09T07:21:10.622Z,62.17
2019-02-09T07:23:41.140Z,67.67
2019-02-09T07:26:11.979Z,63.43
2019-02-09T07:28:42.616Z,62.43
2019-02-09T07:31:13.481Z,64.40
2019-02-09T07:33:43.975Z,65.20
2019-02-09T07:36:14.951Z,68.70
2019-02-09T07:38:45.682Z,62.97
2019-02-09T07:41:16.296Z,68.67
2019-02-09T07:43:46.805Z,70.03
2019-02-09T07:46:18.418Z,70.20
2019-02-09T07:48:48.923Z,71.47
2019-02-09T07:51:19.622Z,74.97
2019-02-09T07:53:50.305Z,74.17
2019-02-09T07:56:20.778Z,75.60
2019-02-09T07:58:51.592Z,73.40
2019-02-09T08:01:22.258Z,73.40
2019-02-09T08:03:52.824Z,69.07
2019-02-09T08:06:23.703Z,72.67
2019-02-09T08:08:54.420Z,72.83
2019-02-09T08:11:25.636Z,74.07
2019-02-09T08:13:56.578Z,71.73
2019-02-09T08:16:27.747Z,70.60
2019-02-09T08:18:58.638Z,80.00
2019-02-09T08:21:29.569Z,77.33
2019-02-09T08:24:00.418Z,73.43
2019-02-09T08:26:32.536Z,83.97
2019-02-09T08:29:04.239Z,82.00
2019-02-09T08:31:35.069Z,79.50
2019-02-09T08:34:05.721Z,76.23
2019-02-09T08:36:36.287Z,77.37
2019-02-09T08:39:08.992Z,85.40
2019-02-09T08:41:39.651Z,78.93
2019-02-09T08:44:10.409Z,79.50
2019-02-09T08:46:40.962Z,87.70
2019-02-09T08:49:11.569Z,106.63
2019-02-09T08:51:42.118Z,85.70
2019-02-09T08:54:12.806Z,79.97
2019-02-09T08:56:43.445Z,71.13
2019-02-09T08:59:14.283Z,71.37
2019-02-09T09:01:44.867Z,70.27
2019-02-09T09:04:15.712Z,69.20
2019-02-09T09:06:46.330Z,71.27
2019-02-09T09:09:17.177Z,70.13
2019-02-09T09:11:47.883Z,69.57
2019-02-09T09:14:18.694Z,67.07
2019-02-09T09:16:49.719Z,67.03
2019-02-09T09:19:20.280Z,68.90
2019-02-09T09:21:50.814Z,71.60
2019-02-09T09:24:21.468Z,64.57
2019-02-09T09:26:55.277Z,66.53
2019-02-09T09:29:25.978Z,68.90
2019-02-09T09:31:57.918Z,72.50
2019-02-09T09:34:28.640Z,63.73
2019-02-09T09:36:59.360Z,65.83
2019-02-09T09:39:30.190Z,66.17
2019-02-09T09:42:00.889Z,66.20
2019-02-09T09:44:33.070Z,62.90
2019-02-09T09:47:03.912Z,69.07
2019-02-09T09:49:36.005Z,67.67
2019-02-09T09:52:06.734Z,66.33
2019-02-09T09:54:37.375Z,65.83
2019-02-09T09:57:08.049Z,70.70
2019-02-09T09:59:38.732Z,67.00
2019-02-09T10:02:09.418Z,67.83
2019-02-09T10:04:41.057Z,64.60
2019-02-09T10:07:11.884Z,61.90
2019-02-09T10:09:42.625Z,60.90
2019-02-09T10:12:15.595Z,66.23
2019-02-09T10:14:46.222Z,63.47
2019-02-09T10:17:17.052Z,70.10
2019-02-09T10:19:47.727Z,101.43
2019-02-09T10:22:18.373Z,109.87
2019-02-09T10:24:48.898Z,148.37
2019-02-09T10:27:19.493Z,116.23
2019-02-09T10:29:50.061Z,104.17
2019-02-09T10:32:20.802Z,68.73
2019-02-09T10:34:51.433Z,51.43
2019-02-09T10:37:21.948Z,43.03
2019-02-09T10:39:52.671Z,40.17
2019-02-09T10:42:23.286Z,37.40
2019-02-09T10:44:54.057Z,43.40
2019-02-09T10:47:24.745Z,40.13
2019-02-09T10:49:56.432Z,40.63
2019-02-09T10:52:27.364Z,33.03
2019-02-09T10:54:57.918Z,34.87
2019-02-09T10:57:28.444Z,38.20
2019-02-09T10:59:59.140Z,37.77
2019-02-09T11:02:31.298Z,35.60
2019-02-09T11:05:02.259Z,38.17
2019-02-09T11:07:32.850Z,36.03
2019-02-09T11:10:03.916Z,36.53
2019-02-09T11:12:34.478Z,34.27
2019-02-09T11:15:07.404Z,34.57
2019-02-09T11:17:38.332Z,38.53
2019-02-09T11:20:11.167Z,33.63
2019-02-09T11:22:42.258Z,31.67
2019-02-09T11:25:13.722Z,30.90
2019-02-09T11:27:44.610Z,31.70
2019-02-09T11:30:17.955Z,35.20
2019-02-09T11:32:48.819Z,30.33
2019-02-09T11:35:20.220Z,30.73
2019-02-09T11:37:51.041Z,30.63
2019-02-09T11:40:22.718Z,33.77
2019-02-09T11:42:53.329Z,32.13
2019-02-09T11:45:26.305Z,34.40
2019-02-09T11:47:58.107Z,32.70
2019-02-09T11:50:29.045Z,33.93
2019-02-09T11:52:59.781Z,35.20
2019-02-09T11:55:30.695Z,33.40
2019-02-09T11:58:01.381Z,30.57
2019-02-09T12:00:35.132Z,31.23
2019-02-09T12:03:14.676Z,34.80
2019-02-09T12:05:38.803Z,30.50
2019-02-09T12:08:09.539Z,33.40
2019-02-09T12:10:40.491Z,33.83
2019-02-09T12:13:11.453Z,31.37
2019-02-09T12:15:42.302Z,30.57
2019-02-09T12:18:13.404Z,31.03
2019-02-09T12:20:44.244Z,34.70
2019-02-09T12:23:14.883Z,33.60
2019-02-09T12:25:45.506Z,30.97
2019-02-09T12:28:16.192Z,35.43
2019-02-09T12:30:47.125Z,30.73
2019-02-09T12:33:23.131Z,44.67
2019-02-09T12:35:53.048Z,38.23
2019-02-09T12:38:24.700Z,70.20
2019-02-09T12:40:55.374Z,44.87
2019-02-09T12:43:26.038Z,50.67
2019-02-09T12:45:56.599Z,33.03
2019-02-09T12:48:27.404Z,32.97
2019-02-09T12:50:57.900Z,29.43
2019-02-09T12:53:28.562Z,33.57
2019-02-09T12:56:01.924Z,28.93
2019-02-09T12:58:32.702Z,32.23
2019-02-09T13:01:03.260Z,30.93
2019-02-09T13:03:34.166Z,28.00
2019-02-09T13:06:04.988Z,31.80
2019-02-09T13:08:35.497Z,30.17
2019-02-09T13:11:37.335Z,27.67
2019-02-09T13:14:07.961Z,26.90
2019-02-09T13:16:38.800Z,31.03
2019-02-09T13:19:09.427Z,30.97
2019-02-09T13:21:40.045Z,30.47
2019-02-09T13:24:10.741Z,36.93
2019-02-09T13:26:41.295Z,30.53
2019-02-09T13:29:12.393Z,28.97
2019-02-09T13:31:42.945Z,29.83
2019-02-09T13:34:13.637Z,29.60
2019-02-09T13:36:44.190Z,36.33
2019-02-09T13:39:14.755Z,31.00
2019-02-09T13:41:45.425Z,32.10
2019-02-09T13:44:16.032Z,34.37
2019-02-09T13:46:47.996Z,34.67
2019-02-09T13:49:19.998Z,31.73
2019-02-09T13:51:52.209Z,32.03
2019-02-09T13:54:25.146Z,36.13
2019-02-09T13:56:55.778Z,32.57
2019-02-09T13:59:26.452Z,34.30
2019-02-09T14:01:57.316Z,37.23
2019-02-09T14:04:29.820Z,29.83
2019-02-09T14:07:01.446Z,35.03
2019-02-09T14:09:32.224Z,32.63
2019-02-09T14:12:02.850Z,35.33
2019-02-09T14:14:33.684Z,32.90
2019-02-09T14:17:04.669Z,32.10
2019-02-09T14:19:35.477Z,35.20
2019-02-09T14:22:06.128Z,39.07
2019-02-09T14:24:36.714Z,33.57
2019-02-09T14:27:07.338Z,33.17
2019-02-09T14:29:37.912Z,31.07
2019-02-09T14:32:08.699Z,32.03
2019-02-09T14:34:40.313Z,33.00
2019-02-09T14:37:11.275Z,36.17
2019-02-09T14:39:41.815Z,33.30
2019-02-09T14:42:12.510Z,32.57
2019-02-09T14:44:43.272Z,34.97
2019-02-09T14:47:13.899Z,36.20
2019-02-09T14:49:44.493Z,38.90
2019-02-09T14:52:15.226Z,36.63
2019-02-09T14:54:45.691Z,34.57
2019-02-09T14:57:16.435Z,37.37
2019-02-09T14:59:47.169Z,40.47
2019-02-09T15:02:17.905Z,36.90
2019-02-09T15:08:13.217Z,33.10
2019-02-09T15:10:45.793Z,39.40
2019-02-09T15:13:16.843Z,35.23
2019-02-09T15:16:39.209Z,38.93
2019-02-09T15:19:09.808Z,31.40
2019-02-09T15:21:44.086Z,36.10
2019-02-09T15:24:15.078Z,34.17
2019-02-09T15:26:46.629Z,33.63
2019-02-09T15:32:45.566Z,32.23
2019-02-09T15:35:28.636Z,33.00
2019-02-09T15:38:00.631Z,34.53
2019-02-09T15:40:31.360Z,34.90
2019-02-09T15:43:02.322Z,34.07
2019-02-09T15:45:34.762Z,34.47
2019-02-09T15:48:06.024Z,35.23
2019-02-09T15:50:38.374Z,31.97
2019-02-09T15:53:08.951Z,37.70
2019-02-09T15:55:39.932Z,32.87
2019-02-09T15:58:10.524Z,35.00
2019-02-09T16:00:43.376Z,35.00
2019-02-09T16:03:14.106Z,33.27
2019-02-09T16:05:44.718Z,32.63
2019-02-09T16:08:15.455Z,33.43
2019-02-09T16:10:47.762Z,27.73
2019-02-09T16:13:18.907Z,31.83
2019-02-09T16:15:49.857Z,31.37
2019-02-09T16:18:20.774Z,31.50
2019-02-09T16:20:51.547Z,32.57
2019-02-09T16:23:22.479Z,29.17
2019-02-09T16:25:53.969Z,29.67
2019-02-09T16:28:25.041Z,28.23
2019-02-09T16:30:55.731Z,31.37
2019-02-09T16:33:26.397Z,32.23
2019-02-09T16:35:57.311Z,30.23
2019-02-09T16:38:27.947Z,32.77
2019-02-09T16:40:58.777Z,33.93
2019-02-09T16:43:29.485Z,33.70
2019-02-09T16:46:00.397Z,31.47
2019-02-09T16:48:31.067Z,30.17
2019-02-09T16:51:03.351Z,30.80
2019-02-09T16:53:33.869Z,33.00
2019-02-09T16:56:04.985Z,27.60
2019-02-09T16:58:35.757Z,27.37
2019-02-09T17:01:07.130Z,27.10
2019-02-09T17:03:37.620Z,27.07
2019-02-09T17:06:08.890Z,26.20
2019-02-09T17:08:39.710Z,29.43
2019-02-09T17:11:10.221Z,27.53
2019-02-09T17:13:42.968Z,28.13
2019-02-09T17:16:13.708Z,26.40
2019-02-09T17:18:46.520Z,26.80
2019-02-09T17:21:17.351Z,29.50
2019-02-09T17:23:48.290Z,27.93
2019-02-09T17:26:19.470Z,27.77
2019-02-09T17:28:53.420Z,27.33
2019-02-09T17:31:25.392Z,26.50
2019-02-09T17:33:57.240Z,27.07
2019-02-09T17:36:27.920Z,26.20
2019-02-09T17:38:58.895Z,23.93
2019-02-09T17:41:29.604Z,28.00
2019-02-09T17:44:00.238Z,26.07
2019-02-09T17:46:31.031Z,29.17
2019-02-09T17:49:02.273Z,28.80
2019-02-09T17:51:33.377Z,24.57
2019-02-09T17:54:05.196Z,30.00
2019-02-09T17:56:36.763Z,25.83
2019-02-09T17:59:07.387Z,27.90
2019-02-09T18:01:39.436Z,26.33
2019-02-09T18:04:09.883Z,24.00
2019-02-09T18:06:40.687Z,23.07
2019-02-09T18:09:11.941Z,19.97
2019-02-09T18:11:43.191Z,18.17
2019-02-09T18:14:16.779Z,20.17
2019-02-09T18:17:00.079Z,20.20
2019-02-09T18:19:32.548Z,20.73
2019-02-09T18:22:04.090Z,19.23
2019-02-09T18:24:40.356Z,21.43
2019-02-09T18:27:20.127Z,20.03
2019-02-09T18:29:59.625Z,20.27
2019-02-09T18:32:31.951Z,22.00
2019-02-09T18:35:03.270Z,22.70
2019-02-09T18:37:40.456Z,20.30
2019-02-09T18:40:17.109Z,20.20
2019-02-09T18:42:51.984Z,23.13
2019-02-09T18:45:27.775Z,23.83
2019-02-09T18:47:59.575Z,21.77
2019-02-09T18:50:32.406Z,22.20
2019-02-09T18:53:04.248Z,22.73
2019-02-09T18:55:35.644Z,19.87
2019-02-09T18:58:08.272Z,22.17
2019-02-09T19:00:40.404Z,23.80
2019-02-09T19:03:14.559Z,23.93
2019-02-09T19:05:56.036Z,23.57
2019-02-09T19:08:28.141Z,24.03
2019-02-09T19:11:01.012Z,22.57
2019-02-09T19:13:32.551Z,24.93
2019-02-09T19:16:03.914Z,23.07
2019-02-09T19:18:36.078Z,20.70
2019-02-09T19:21:14.287Z,24.83
2019-02-09T19:23:47.227Z,21.23
2019-02-09T19:26:18.507Z,24.07
2019-02-09T19:28:50.286Z,24.40
2019-02-09T19:31:22.706Z,23.97
2019-02-09T19:33:54.077Z,23.70
2019-02-09T19:36:25.427Z,26.00
2019-02-09T19:38:56.081Z,24.90
2019-02-09T19:41:26.714Z,26.03
2019-02-09T19:44:00.225Z,21.03
2019-02-09T19:46:30.959Z,22.93
2019-02-09T19:49:02.700Z,28.43
2019-02-09T19:51:33.653Z,23.80
2019-02-09T19:54:08.709Z,25.23
2019-02-09T19:56:40.980Z,25.57
2019-02-09T19:59:13.006Z,27.83
2019-02-09T20:01:44.621Z,23.37
2019-02-09T20:04:18.551Z,23.33
2019-02-09T20:06:50.238Z,26.33
2019-02-09T20:09:21.686Z,27.10
2019-02-09T20:11:56.081Z,24.10
2019-02-09T20:14:27.343Z,25.97
2019-02-09T20:17:01.991Z,24.87
2019-02-09T20:19:34.419Z,24.87
2019-02-09T20:22:09.978Z,24.77
2019-02-09T20:24:42.322Z,24.37
2019-02-09T20:27:13.216Z,26.23
2019-02-09T20:29:43.974Z,27.70
2019-02-09T20:32:15.958Z,26.07
2019-02-09T20:34:46.648Z,27.33
2019-02-09T20:37:18.010Z,28.50
2019-02-09T20:39:50.210Z,28.03
2019-02-09T20:42:24.053Z,24.67
2019-02-09T20:44:55.441Z,25.03
2019-02-09T20:47:27.912Z,26.07
2019-02-09T20:49:59.016Z,26.60
2019-02-09T20:52:31.358Z,25.83
2019-02-09T20:55:02.367Z,28.00
2019-02-09T20:57:33.400Z,30.33
2019-02-09T21:00:05.655Z,25.07
2019-02-09T21:02:37.311Z,24.90
2019-02-09T21:05:08.443Z,26.50
2019-02-09T21:07:39.213Z,32.80
2019-02-09T21:10:16.564Z,28.53
2019-02-09T21:12:47.211Z,26.33
2019-02-09T21:15:19.509Z,26.23
2019-02-09T21:17:50.933Z,27.80
2019-02-09T21:20:22.588Z,26.23
2019-02-09T21:22:53.760Z,27.33
2019-02-09T21:25:27.340Z,28.57
2019-02-09T21:27:58.219Z,27.90
2019-02-09T21:30:29.723Z,28.40
2019-02-09T21:33:00.695Z,26.73
2019-02-09T21:35:31.440Z,28.93
2019-02-09T21:38:02.572Z,27.73
2019-02-09T21:40:33.596Z,29.87
2019-02-09T21:43:04.394Z,30.20
2019-02-09T21:45:35.266Z,29.50
2019-02-09T21:48:06.956Z,31.17
2019-02-09T21:50:39.728Z,29.13
2019-02-09T21:53:10.664Z,29.97
2019-02-09T21:55:41.628Z,27.20
2019-02-09T21:58:12.329Z,27.87
2019-02-09T22:00:44.290Z,28.77
2019-02-09T22:03:15.296Z,32.30
2019-02-09T22:05:51.821Z,31.17
2019-02-09T22:08:19.977Z,30.73
2019-02-09T22:10:52.441Z,29.70
2019-02-09T22:13:23.106Z,28.80
2019-02-09T22:15:53.830Z,30.23
2019-02-09T22:18:24.827Z,32.67
2019-02-09T22:20:56.062Z,27.17
2019-02-09T22:23:26.764Z,30.30
2019-02-09T22:25:57.649Z,27.23
2019-02-09T22:28:28.373Z,32.47
2019-02-09T22:30:59.047Z,31.93
2019-02-09T22:33:29.667Z,29.27
2019-02-09T22:36:00.386Z,29.63
2019-02-09T22:38:31.025Z,32.90
2019-02-09T22:41:01.821Z,34.03
2019-02-09T22:43:32.505Z,30.97
2019-02-09T22:46:04.797Z,29.33
2019-02-09T22:48:35.427Z,32.00
2019-02-09T22:51:07.365Z,32.83
2019-02-09T22:53:37.995Z,32.90
2019-02-09T22:56:09.582Z,28.83
2019-02-09T22:58:40.107Z,28.83
2019-02-09T23:01:32.126Z,28.33
2019-02-09T23:04:13.684Z,29.43
2019-02-09T23:07:17.517Z,30.97
2019-02-09T23:09:48.446Z,28.83
2019-02-09T23:12:20.035Z,28.33
2019-02-09T23:14:51.088Z,28.53
2019-02-09T23:17:21.713Z,27.50
2019-02-09T23:19:52.442Z,32.53
2019-02-09T23:22:23.154Z,32.43
2019-02-09T23:24:53.802Z,28.73
2019-02-09T23:27:24.642Z,32.23
2019-02-09T23:29:55.290Z,29.83
2019-02-09T23:32:25.882Z,29.43
2019-02-09T23:34:56.764Z,31.20
2019-02-09T23:37:27.786Z,29.33
2019-02-09T23:39:58.284Z,28.53
2019-02-09T23:42:28.780Z,30.87
2019-02-09T23:44:59.353Z,30.03
2019-02-09T23:47:29.808Z,31.47
2019-02-09T23:50:00.314Z,28.30
2019-02-09T23:52:30.818Z,34.00
2019-02-09T23:55:01.323Z,29.33
2019-02-09T23:57:31.842Z,32.20
